sensor_id;sensor_type;location;lat;lon;timestamp;P1;durP1;ratioP1;P2;durP2;ratioP2
71125;SDS011;58785;55.566;38.058;2023-11-19T00:00:50;23.58;;;11.20;;
71125;SDS011;58785;55.566;38.058;2023-11-19T00:03:16;22.42;;;10.43;;
71125;SDS011;58785;55.566;38.058;2023-11-19T00:05:43;29.00;;;12.55;;
71125;SDS011;58785;55.566;38.058;2023-11-19T00:08:10;40.33;;;13.17;;
71125;SDS011;58785;55.566;38.058;2023-11-19T00:10:35;26.80;;;12.48;;
71125;SDS011;58785;55.566;38.058;2023-11-19T00:13:01;32.50;;;12.90;;
71125;SDS011;58785;55.566;38.058;2023-11-19T00:15:28;34.88;;;11.77;;
71125;SDS011;58785;55.566;38.058;2023-11-19T00:17:53;31.40;;;12.07;;
71125;SDS011;58785;55.566;38.058;2023-11-19T00:20:19;26.50;;;10.77;;
71125;SDS011;58785;55.566;38.058;2023-11-19T00:22:47;41.97;;;12.95;;
71125;SDS011;58785;55.566;38.058;2023-11-19T00:25:17;41.58;;;13.10;;
71125;SDS011;58785;55.566;38.058;2023-11-19T00:27:44;40.87;;;12.97;;
71125;SDS011;58785;55.566;38.058;2023-11-19T00:30:10;29.83;;;12.95;;
71125;SDS011;58785;55.566;38.058;2023-11-19T00:32:36;29.75;;;11.35;;
71125;SDS011;58785;55.566;38.058;2023-11-19T00:35:04;23.00;;;11.48;;
71125;SDS011;58785;55.566;38.058;2023-11-19T00:37:32;27.13;;;11.80;;
71125;SDS011;58785;55.566;38.058;2023-11-19T00:39:58;23.50;;;10.95;;
71125;SDS011;58785;55.566;38.058;2023-11-19T00:42:24;31.23;;;10.10;;
71125;SDS011;58785;55.566;38.058;2023-11-19T00:44:50;27.08;;;12.18;;
71125;SDS011;58785;55.566;38.058;2023-11-19T00:47:16;27.42;;;11.15;;
71125;SDS011;58785;55.566;38.058;2023-11-19T00:49:42;26.02;;;11.32;;
71125;SDS011;58785;55.566;38.058;2023-11-19T00:52:08;28.30;;;9.93;;
71125;SDS011;58785;55.566;38.058;2023-11-19T00:54:34;26.07;;;11.70;;
71125;SDS011;58785;55.566;38.058;2023-11-19T00:56:59;29.13;;;12.93;;
71125;SDS011;58785;55.566;38.058;2023-11-19T00:59:26;25.77;;;13.52;;
71125;SDS011;58785;55.566;38.058;2023-11-19T01:01:53;29.40;;;13.40;;
71125;SDS011;58785;55.566;38.058;2023-11-19T01:04:19;28.07;;;14.03;;
71125;SDS011;58785;55.566;38.058;2023-11-19T01:06:45;27.98;;;12.50;;
71125;SDS011;58785;55.566;38.058;2023-11-19T01:09:11;36.17;;;15.87;;
71125;SDS011;58785;55.566;38.058;2023-11-19T01:11:36;45.75;;;17.35;;
71125;SDS011;58785;55.566;38.058;2023-11-19T01:14:02;41.90;;;17.13;;
71125;SDS011;58785;55.566;38.058;2023-11-19T01:16:28;40.43;;;16.67;;
71125;SDS011;58785;55.566;38.058;2023-11-19T01:18:53;29.63;;;14.00;;
71125;SDS011;58785;55.566;38.058;2023-11-19T01:21:19;23.87;;;13.97;;
71125;SDS011;58785;55.566;38.058;2023-11-19T01:23:45;37.87;;;14.17;;
71125;SDS011;58785;55.566;38.058;2023-11-19T01:26:12;27.15;;;13.10;;
71125;SDS011;58785;55.566;38.058;2023-11-19T01:28:39;30.13;;;13.05;;
71125;SDS011;58785;55.566;38.058;2023-11-19T01:31:05;31.90;;;12.30;;
71125;SDS011;58785;55.566;38.058;2023-11-19T01:33:35;30.67;;;14.70;;
71125;SDS011;58785;55.566;38.058;2023-11-19T01:36:01;24.85;;;11.75;;
71125;SDS011;58785;55.566;38.058;2023-11-19T01:38:27;25.57;;;10.13;;
71125;SDS011;58785;55.566;38.058;2023-11-19T01:40:56;22.83;;;9.47;;
71125;SDS011;58785;55.566;38.058;2023-11-19T01:43:32;17.05;;;8.43;;
71125;SDS011;58785;55.566;38.058;2023-11-19T01:45:58;20.45;;;9.40;;
71125;SDS011;58785;55.566;38.058;2023-11-19T01:48:24;19.50;;;11.27;;
71125;SDS011;58785;55.566;38.058;2023-11-19T01:50:50;24.42;;;10.45;;
71125;SDS011;58785;55.566;38.058;2023-11-19T01:53:18;20.98;;;10.77;;
71125;SDS011;58785;55.566;38.058;2023-11-19T01:55:44;20.75;;;9.35;;
71125;SDS011;58785;55.566;38.058;2023-11-19T01:58:12;19.87;;;9.03;;
71125;SDS011;58785;55.566;38.058;2023-11-19T02:00:38;20.60;;;8.10;;
71125;SDS011;58785;55.566;38.058;2023-11-19T02:03:05;18.37;;;7.37;;
71125;SDS011;58785;55.566;38.058;2023-11-19T02:05:33;19.00;;;7.97;;
71125;SDS011;58785;55.566;38.058;2023-11-19T02:08:00;18.45;;;8.18;;
71125;SDS011;58785;55.566;38.058;2023-11-19T02:10:26;21.33;;;7.80;;
71125;SDS011;58785;55.566;38.058;2023-11-19T02:12:52;22.63;;;9.00;;
71125;SDS011;58785;55.566;38.058;2023-11-19T02:15:18;19.13;;;7.50;;
71125;SDS011;58785;55.566;38.058;2023-11-19T02:17:44;15.77;;;7.68;;
71125;SDS011;58785;55.566;38.058;2023-11-19T02:20:10;16.08;;;8.30;;
71125;SDS011;58785;55.566;38.058;2023-11-19T02:22:40;20.42;;;9.27;;
71125;SDS011;58785;55.566;38.058;2023-11-19T02:28:05;15.52;;;7.22;;
71125;SDS011;58785;55.566;38.058;2023-11-19T02:30:32;17.17;;;7.03;;
71125;SDS011;58785;55.566;38.058;2023-11-19T02:32:58;16.40;;;6.10;;
71125;SDS011;58785;55.566;38.058;2023-11-19T02:35:28;20.75;;;6.82;;
71125;SDS011;58785;55.566;38.058;2023-11-19T02:37:57;14.20;;;5.93;;
71125;SDS011;58785;55.566;38.058;2023-11-19T02:40:24;9.77;;;4.53;;
71125;SDS011;58785;55.566;38.058;2023-11-19T02:42:53;11.63;;;5.57;;
71125;SDS011;58785;55.566;38.058;2023-11-19T02:45:22;12.98;;;5.18;;
71125;SDS011;58785;55.566;38.058;2023-11-19T02:47:48;14.77;;;5.78;;
71125;SDS011;58785;55.566;38.058;2023-11-19T02:50:15;14.80;;;5.60;;
71125;SDS011;58785;55.566;38.058;2023-11-19T02:52:41;12.60;;;5.93;;
71125;SDS011;58785;55.566;38.058;2023-11-19T02:55:08;15.95;;;7.43;;
71125;SDS011;58785;55.566;38.058;2023-11-19T02:57:35;23.13;;;8.88;;
71125;SDS011;58785;55.566;38.058;2023-11-19T03:00:01;23.83;;;12.48;;
71125;SDS011;58785;55.566;38.058;2023-11-19T03:02:38;26.90;;;12.88;;
71125;SDS011;58785;55.566;38.058;2023-11-19T03:05:10;27.73;;;13.23;;
71125;SDS011;58785;55.566;38.058;2023-11-19T03:07:37;28.25;;;12.50;;
71125;SDS011;58785;55.566;38.058;2023-11-19T03:10:02;19.05;;;8.98;;
71125;SDS011;58785;55.566;38.058;2023-11-19T03:12:31;18.40;;;9.55;;
71125;SDS011;58785;55.566;38.058;2023-11-19T03:14:56;16.73;;;8.73;;
71125;SDS011;58785;55.566;38.058;2023-11-19T03:17:22;20.95;;;7.50;;
71125;SDS011;58785;55.566;38.058;2023-11-19T03:19:49;12.43;;;7.27;;
71125;SDS011;58785;55.566;38.058;2023-11-19T03:22:15;15.20;;;6.07;;
71125;SDS011;58785;55.566;38.058;2023-11-19T03:24:40;18.37;;;7.67;;
71125;SDS011;58785;55.566;38.058;2023-11-19T03:27:06;14.75;;;5.80;;
71125;SDS011;58785;55.566;38.058;2023-11-19T03:29:32;12.70;;;5.47;;
71125;SDS011;58785;55.566;38.058;2023-11-19T03:31:57;9.60;;;4.82;;
71125;SDS011;58785;55.566;38.058;2023-11-19T03:34:23;17.87;;;5.83;;
71125;SDS011;58785;55.566;38.058;2023-11-19T03:36:48;14.73;;;6.00;;
71125;SDS011;58785;55.566;38.058;2023-11-19T03:39:14;12.80;;;6.30;;
71125;SDS011;58785;55.566;38.058;2023-11-19T03:41:39;11.60;;;4.57;;
71125;SDS011;58785;55.566;38.058;2023-11-19T03:44:05;16.17;;;6.32;;
71125;SDS011;58785;55.566;38.058;2023-11-19T03:46:31;24.30;;;6.33;;
71125;SDS011;58785;55.566;38.058;2023-11-19T03:48:57;13.88;;;6.38;;
71125;SDS011;58785;55.566;38.058;2023-11-19T03:51:23;20.67;;;7.80;;
71125;SDS011;58785;55.566;38.058;2023-11-19T03:53:48;23.98;;;9.43;;
71125;SDS011;58785;55.566;38.058;2023-11-19T03:56:14;21.93;;;9.93;;
71125;SDS011;58785;55.566;38.058;2023-11-19T03:58:39;35.90;;;10.40;;
71125;SDS011;58785;55.566;38.058;2023-11-19T04:01:05;28.47;;;10.50;;
71125;SDS011;58785;55.566;38.058;2023-11-19T04:03:31;23.10;;;10.50;;
71125;SDS011;58785;55.566;38.058;2023-11-19T04:05:57;41.50;;;11.60;;
71125;SDS011;58785;55.566;38.058;2023-11-19T04:08:22;24.92;;;10.07;;
71125;SDS011;58785;55.566;38.058;2023-11-19T04:10:48;36.77;;;9.27;;
71125;SDS011;58785;55.566;38.058;2023-11-19T04:13:14;20.30;;;9.13;;
71125;SDS011;58785;55.566;38.058;2023-11-19T04:15:39;27.73;;;12.45;;
71125;SDS011;58785;55.566;38.058;2023-11-19T04:18:05;28.83;;;10.27;;
71125;SDS011;58785;55.566;38.058;2023-11-19T04:20:30;21.45;;;9.77;;
71125;SDS011;58785;55.566;38.058;2023-11-19T04:22:57;27.33;;;11.67;;
71125;SDS011;58785;55.566;38.058;2023-11-19T04:25:23;26.88;;;12.15;;
71125;SDS011;58785;55.566;38.058;2023-11-19T04:27:51;30.20;;;10.02;;
71125;SDS011;58785;55.566;38.058;2023-11-19T04:30:17;31.17;;;11.37;;
71125;SDS011;58785;55.566;38.058;2023-11-19T04:32:43;39.80;;;13.02;;
71125;SDS011;58785;55.566;38.058;2023-11-19T04:35:09;28.70;;;11.65;;
71125;SDS011;58785;55.566;38.058;2023-11-19T04:37:35;39.10;;;12.80;;
71125;SDS011;58785;55.566;38.058;2023-11-19T04:40:02;41.03;;;11.95;;
71125;SDS011;58785;55.566;38.058;2023-11-19T04:42:29;30.00;;;11.73;;
71125;SDS011;58785;55.566;38.058;2023-11-19T04:44:55;31.60;;;10.38;;
71125;SDS011;58785;55.566;38.058;2023-11-19T04:47:21;42.03;;;12.07;;
71125;SDS011;58785;55.566;38.058;2023-11-19T04:49:47;38.17;;;13.48;;
71125;SDS011;58785;55.566;38.058;2023-11-19T04:52:12;21.73;;;13.47;;
71125;SDS011;58785;55.566;38.058;2023-11-19T04:54:44;27.83;;;12.10;;
71125;SDS011;58785;55.566;38.058;2023-11-19T04:57:09;31.33;;;12.77;;
71125;SDS011;58785;55.566;38.058;2023-11-19T04:59:36;30.17;;;14.60;;
71125;SDS011;58785;55.566;38.058;2023-11-19T05:02:02;31.70;;;13.48;;
71125;SDS011;58785;55.566;38.058;2023-11-19T05:04:29;33.80;;;13.23;;
71125;SDS011;58785;55.566;38.058;2023-11-19T05:06:55;30.35;;;12.55;;
71125;SDS011;58785;55.566;38.058;2023-11-19T05:09:20;23.37;;;11.17;;
71125;SDS011;58785;55.566;38.058;2023-11-19T05:11:46;38.65;;;13.02;;
71125;SDS011;58785;55.566;38.058;2023-11-19T05:14:12;27.33;;;11.70;;
71125;SDS011;58785;55.566;38.058;2023-11-19T05:16:40;26.27;;;13.07;;
71125;SDS011;58785;55.566;38.058;2023-11-19T05:19:06;31.48;;;12.73;;
71125;SDS011;58785;55.566;38.058;2023-11-19T05:21:32;28.55;;;12.88;;
71125;SDS011;58785;55.566;38.058;2023-11-19T05:23:58;28.88;;;12.73;;
71125;SDS011;58785;55.566;38.058;2023-11-19T05:26:24;43.80;;;13.33;;
71125;SDS011;58785;55.566;38.058;2023-11-19T05:28:50;36.83;;;15.35;;
71125;SDS011;58785;55.566;38.058;2023-11-19T05:31:16;40.35;;;15.98;;
71125;SDS011;58785;55.566;38.058;2023-11-19T05:33:43;39.03;;;17.13;;
71125;SDS011;58785;55.566;38.058;2023-11-19T05:36:10;38.35;;;17.38;;
71125;SDS011;58785;55.566;38.058;2023-11-19T05:38:36;41.83;;;16.88;;
71125;SDS011;58785;55.566;38.058;2023-11-19T05:41:02;41.70;;;18.70;;
71125;SDS011;58785;55.566;38.058;2023-11-19T05:43:28;38.75;;;16.98;;
71125;SDS011;58785;55.566;38.058;2023-11-19T05:45:54;33.43;;;15.63;;
71125;SDS011;58785;55.566;38.058;2023-11-19T05:48:20;36.92;;;16.58;;
71125;SDS011;58785;55.566;38.058;2023-11-19T05:50:46;28.10;;;14.50;;
71125;SDS011;58785;55.566;38.058;2023-11-19T05:53:12;35.50;;;16.27;;
71125;SDS011;58785;55.566;38.058;2023-11-19T05:55:40;33.47;;;15.82;;
71125;SDS011;58785;55.566;38.058;2023-11-19T05:58:14;30.83;;;15.52;;
71125;SDS011;58785;55.566;38.058;2023-11-19T06:00:40;37.97;;;16.45;;
71125;SDS011;58785;55.566;38.058;2023-11-19T06:03:08;31.70;;;15.73;;
71125;SDS011;58785;55.566;38.058;2023-11-19T06:05:34;40.95;;;13.82;;
71125;SDS011;58785;55.566;38.058;2023-11-19T06:08:00;37.43;;;16.37;;
71125;SDS011;58785;55.566;38.058;2023-11-19T06:10:25;33.28;;;12.98;;
71125;SDS011;58785;55.566;38.058;2023-11-19T06:12:58;40.10;;;15.02;;
71125;SDS011;58785;55.566;38.058;2023-11-19T06:15:27;32.13;;;14.75;;
71125;SDS011;58785;55.566;38.058;2023-11-19T06:17:53;35.10;;;15.03;;
71125;SDS011;58785;55.566;38.058;2023-11-19T06:20:20;38.15;;;15.75;;
71125;SDS011;58785;55.566;38.058;2023-11-19T06:22:45;28.70;;;13.32;;
71125;SDS011;58785;55.566;38.058;2023-11-19T06:25:12;34.80;;;16.37;;
71125;SDS011;58785;55.566;38.058;2023-11-19T06:27:40;30.00;;;13.85;;
71125;SDS011;58785;55.566;38.058;2023-11-19T06:30:07;34.80;;;15.20;;
71125;SDS011;58785;55.566;38.058;2023-11-19T06:32:33;32.75;;;15.05;;
71125;SDS011;58785;55.566;38.058;2023-11-19T06:34:58;30.40;;;13.97;;
71125;SDS011;58785;55.566;38.058;2023-11-19T06:37:24;26.70;;;14.13;;
71125;SDS011;58785;55.566;38.058;2023-11-19T06:39:49;39.13;;;12.07;;
71125;SDS011;58785;55.566;38.058;2023-11-19T06:42:15;34.67;;;13.30;;
71125;SDS011;58785;55.566;38.058;2023-11-19T06:44:41;28.90;;;13.07;;
71125;SDS011;58785;55.566;38.058;2023-11-19T06:47:06;46.83;;;13.27;;
71125;SDS011;58785;55.566;38.058;2023-11-19T06:49:32;30.95;;;13.73;;
71125;SDS011;58785;55.566;38.058;2023-11-19T06:51:58;29.40;;;12.90;;
71125;SDS011;58785;55.566;38.058;2023-11-19T06:54:25;36.63;;;12.68;;
71125;SDS011;58785;55.566;38.058;2023-11-19T06:56:51;23.85;;;11.18;;
71125;SDS011;58785;55.566;38.058;2023-11-19T06:59:17;30.30;;;12.00;;
71125;SDS011;58785;55.566;38.058;2023-11-19T07:01:42;31.53;;;12.30;;
71125;SDS011;58785;55.566;38.058;2023-11-19T07:04:11;25.40;;;11.82;;
71125;SDS011;58785;55.566;38.058;2023-11-19T07:06:38;28.50;;;13.33;;
71125;SDS011;58785;55.566;38.058;2023-11-19T07:09:06;32.72;;;12.85;;
71125;SDS011;58785;55.566;38.058;2023-11-19T07:11:35;26.53;;;12.43;;
71125;SDS011;58785;55.566;38.058;2023-11-19T07:14:04;26.05;;;10.70;;
71125;SDS011;58785;55.566;38.058;2023-11-19T07:16:30;28.83;;;12.35;;
71125;SDS011;58785;55.566;38.058;2023-11-19T07:18:56;31.27;;;11.77;;
71125;SDS011;58785;55.566;38.058;2023-11-19T07:21:21;29.40;;;11.77;;
71125;SDS011;58785;55.566;38.058;2023-11-19T07:23:47;29.47;;;13.33;;
71125;SDS011;58785;55.566;38.058;2023-11-19T07:26:13;27.87;;;11.97;;
71125;SDS011;58785;55.566;38.058;2023-11-19T07:28:38;26.58;;;11.80;;
71125;SDS011;58785;55.566;38.058;2023-11-19T07:31:07;19.33;;;9.27;;
71125;SDS011;58785;55.566;38.058;2023-11-19T07:33:35;12.03;;;4.33;;
71125;SDS011;58785;55.566;38.058;2023-11-19T07:36:01;17.73;;;7.47;;
71125;SDS011;58785;55.566;38.058;2023-11-19T07:38:27;20.90;;;8.63;;
71125;SDS011;58785;55.566;38.058;2023-11-19T07:40:53;18.00;;;7.97;;
71125;SDS011;58785;55.566;38.058;2023-11-19T07:43:18;15.20;;;6.55;;
71125;SDS011;58785;55.566;38.058;2023-11-19T07:45:44;16.47;;;6.43;;
71125;SDS011;58785;55.566;38.058;2023-11-19T07:48:11;18.92;;;5.20;;
71125;SDS011;58785;55.566;38.058;2023-11-19T07:50:39;10.65;;;3.70;;
71125;SDS011;58785;55.566;38.058;2023-11-19T07:53:07;7.17;;;2.57;;
71125;SDS011;58785;55.566;38.058;2023-11-19T07:55:34;9.82;;;3.03;;
71125;SDS011;58785;55.566;38.058;2023-11-19T07:57:59;7.85;;;2.55;;
71125;SDS011;58785;55.566;38.058;2023-11-19T08:00:26;9.07;;;2.42;;
71125;SDS011;58785;55.566;38.058;2023-11-19T08:02:52;9.87;;;3.40;;
71125;SDS011;58785;55.566;38.058;2023-11-19T08:05:17;12.35;;;2.60;;
71125;SDS011;58785;55.566;38.058;2023-11-19T08:07:43;8.30;;;3.00;;
71125;SDS011;58785;55.566;38.058;2023-11-19T08:10:08;9.53;;;2.50;;
71125;SDS011;58785;55.566;38.058;2023-11-19T08:12:35;6.65;;;2.47;;
71125;SDS011;58785;55.566;38.058;2023-11-19T08:15:02;6.00;;;2.38;;
71125;SDS011;58785;55.566;38.058;2023-11-19T08:17:29;8.95;;;3.38;;
71125;SDS011;58785;55.566;38.058;2023-11-19T08:19:55;8.03;;;2.77;;
71125;SDS011;58785;55.566;38.058;2023-11-19T08:22:20;12.65;;;4.00;;
71125;SDS011;58785;55.566;38.058;2023-11-19T08:24:47;8.20;;;2.95;;
71125;SDS011;58785;55.566;38.058;2023-11-19T08:27:13;17.60;;;6.00;;
71125;SDS011;58785;55.566;38.058;2023-11-19T08:29:39;20.92;;;6.45;;
71125;SDS011;58785;55.566;38.058;2023-11-19T08:32:05;10.57;;;3.80;;
71125;SDS011;58785;55.566;38.058;2023-11-19T08:34:32;9.57;;;3.23;;
71125;SDS011;58785;55.566;38.058;2023-11-19T08:36:57;7.97;;;2.63;;
71125;SDS011;58785;55.566;38.058;2023-11-19T08:39:24;11.70;;;3.70;;
71125;SDS011;58785;55.566;38.058;2023-11-19T08:41:50;10.83;;;4.10;;
71125;SDS011;58785;55.566;38.058;2023-11-19T08:44:16;17.30;;;4.28;;
71125;SDS011;58785;55.566;38.058;2023-11-19T08:46:51;14.63;;;5.60;;
71125;SDS011;58785;55.566;38.058;2023-11-19T08:49:17;8.50;;;3.70;;
71125;SDS011;58785;55.566;38.058;2023-11-19T08:51:43;13.68;;;4.20;;
71125;SDS011;58785;55.566;38.058;2023-11-19T08:54:10;12.88;;;5.43;;
71125;SDS011;58785;55.566;38.058;2023-11-19T08:56:37;17.33;;;5.03;;
71125;SDS011;58785;55.566;38.058;2023-11-19T08:59:04;18.90;;;6.28;;
71125;SDS011;58785;55.566;38.058;2023-11-19T09:01:30;10.77;;;4.13;;
71125;SDS011;58785;55.566;38.058;2023-11-19T09:03:56;10.73;;;4.45;;
71125;SDS011;58785;55.566;38.058;2023-11-19T09:06:22;12.45;;;4.05;;
71125;SDS011;58785;55.566;38.058;2023-11-19T09:08:48;9.67;;;3.30;;
71125;SDS011;58785;55.566;38.058;2023-11-19T09:11:14;7.97;;;2.78;;
71125;SDS011;58785;55.566;38.058;2023-11-19T09:13:39;11.00;;;3.17;;
71125;SDS011;58785;55.566;38.058;2023-11-19T09:16:05;12.57;;;4.10;;
71125;SDS011;58785;55.566;38.058;2023-11-19T09:18:31;8.85;;;3.40;;
71125;SDS011;58785;55.566;38.058;2023-11-19T09:21:00;8.13;;;2.80;;
71125;SDS011;58785;55.566;38.058;2023-11-19T09:23:26;8.40;;;3.03;;
71125;SDS011;58785;55.566;38.058;2023-11-19T09:25:54;10.18;;;3.15;;
71125;SDS011;58785;55.566;38.058;2023-11-19T09:28:20;11.57;;;3.33;;
71125;SDS011;58785;55.566;38.058;2023-11-19T09:30:45;21.80;;;5.83;;
71125;SDS011;58785;55.566;38.058;2023-11-19T09:33:11;73.95;;;21.13;;
71125;SDS011;58785;55.566;38.058;2023-11-19T09:35:37;91.90;;;24.63;;
71125;SDS011;58785;55.566;38.058;2023-11-19T09:38:02;25.23;;;9.13;;
71125;SDS011;58785;55.566;38.058;2023-11-19T09:40:30;14.68;;;5.18;;
71125;SDS011;58785;55.566;38.058;2023-11-19T09:42:56;12.37;;;3.23;;
71125;SDS011;58785;55.566;38.058;2023-11-19T09:45:22;9.88;;;3.45;;
71125;SDS011;58785;55.566;38.058;2023-11-19T09:47:54;22.77;;;10.40;;
71125;SDS011;58785;55.566;38.058;2023-11-19T09:50:22;12.23;;;5.57;;
71125;SDS011;58785;55.566;38.058;2023-11-19T09:52:48;16.05;;;5.75;;
71125;SDS011;58785;55.566;38.058;2023-11-19T09:55:14;9.65;;;3.83;;
71125;SDS011;58785;55.566;38.058;2023-11-19T09:57:40;9.23;;;4.10;;
71125;SDS011;58785;55.566;38.058;2023-11-19T10:00:09;14.18;;;4.22;;
71125;SDS011;58785;55.566;38.058;2023-11-19T10:02:37;12.27;;;4.15;;
71125;SDS011;58785;55.566;38.058;2023-11-19T10:05:04;15.48;;;4.97;;
71125;SDS011;58785;55.566;38.058;2023-11-19T10:07:32;17.10;;;5.70;;
71125;SDS011;58785;55.566;38.058;2023-11-19T10:09:59;10.97;;;4.87;;
71125;SDS011;58785;55.566;38.058;2023-11-19T10:12:26;10.60;;;4.22;;
71125;SDS011;58785;55.566;38.058;2023-11-19T10:14:53;10.18;;;3.22;;
71125;SDS011;58785;55.566;38.058;2023-11-19T10:17:42;15.57;;;4.50;;
71125;SDS011;58785;55.566;38.058;2023-11-19T10:20:08;10.02;;;3.42;;
71125;SDS011;58785;55.566;38.058;2023-11-19T10:22:38;9.47;;;3.50;;
71125;SDS011;58785;55.566;38.058;2023-11-19T10:27:53;8.68;;;3.00;;
71125;SDS011;58785;55.566;38.058;2023-11-19T10:30:26;10.10;;;3.28;;
71125;SDS011;58785;55.566;38.058;2023-11-19T10:33:06;10.48;;;3.80;;
71125;SDS011;58785;55.566;38.058;2023-11-19T10:35:36;13.43;;;3.63;;
71125;SDS011;58785;55.566;38.058;2023-11-19T10:38:15;16.17;;;5.72;;
71125;SDS011;58785;55.566;38.058;2023-11-19T10:40:41;16.38;;;4.75;;
71125;SDS011;58785;55.566;38.058;2023-11-19T10:43:07;11.27;;;3.97;;
71125;SDS011;58785;55.566;38.058;2023-11-19T10:45:34;10.95;;;4.10;;
71125;SDS011;58785;55.566;38.058;2023-11-19T10:48:02;9.97;;;3.90;;
71125;SDS011;58785;55.566;38.058;2023-11-19T10:50:32;13.85;;;3.55;;
71125;SDS011;58785;55.566;38.058;2023-11-19T10:53:02;12.50;;;3.03;;
71125;SDS011;58785;55.566;38.058;2023-11-19T10:55:29;9.20;;;3.45;;
71125;SDS011;58785;55.566;38.058;2023-11-19T10:58:03;9.48;;;3.60;;
71125;SDS011;58785;55.566;38.058;2023-11-19T11:03:19;10.18;;;3.33;;
71125;SDS011;58785;55.566;38.058;2023-11-19T11:05:46;20.50;;;7.28;;
71125;SDS011;58785;55.566;38.058;2023-11-19T11:08:13;17.33;;;6.65;;
71125;SDS011;58785;55.566;38.058;2023-11-19T11:13:35;11.50;;;4.60;;
71125;SDS011;58785;55.566;38.058;2023-11-19T11:16:04;12.23;;;4.00;;
71125;SDS011;58785;55.566;38.058;2023-11-19T11:18:32;17.70;;;4.18;;
71125;SDS011;58785;55.566;38.058;2023-11-19T11:21:00;12.07;;;4.00;;
71125;SDS011;58785;55.566;38.058;2023-11-19T11:26:34;10.38;;;4.00;;
71125;SDS011;58785;55.566;38.058;2023-11-19T11:29:04;14.60;;;5.60;;
71125;SDS011;58785;55.566;38.058;2023-11-19T11:34:34;13.13;;;4.47;;
71125;SDS011;58785;55.566;38.058;2023-11-19T11:37:32;6.97;;;3.10;;
71125;SDS011;58785;55.566;38.058;2023-11-19T11:40:02;9.50;;;2.92;;
71125;SDS011;58785;55.566;38.058;2023-11-19T11:42:36;13.90;;;3.55;;
71125;SDS011;58785;55.566;38.058;2023-11-19T11:45:08;13.10;;;4.63;;
71125;SDS011;58785;55.566;38.058;2023-11-19T11:50:10;12.30;;;4.13;;
71125;SDS011;58785;55.566;38.058;2023-11-19T11:55:26;9.65;;;4.38;;
71125;SDS011;58785;55.566;38.058;2023-11-19T11:57:53;11.38;;;4.43;;
71125;SDS011;58785;55.566;38.058;2023-11-19T12:00:22;15.23;;;7.55;;
71125;SDS011;58785;55.566;38.058;2023-11-19T12:02:49;13.73;;;5.73;;
71125;SDS011;58785;55.566;38.058;2023-11-19T12:05:15;9.07;;;4.00;;
71125;SDS011;58785;55.566;38.058;2023-11-19T12:07:40;10.98;;;4.30;;
71125;SDS011;58785;55.566;38.058;2023-11-19T12:10:06;9.67;;;3.63;;
71125;SDS011;58785;55.566;38.058;2023-11-19T12:12:34;13.85;;;4.88;;
71125;SDS011;58785;55.566;38.058;2023-11-19T12:15:01;14.55;;;5.47;;
71125;SDS011;58785;55.566;38.058;2023-11-19T12:20:00;17.27;;;7.00;;
71125;SDS011;58785;55.566;38.058;2023-11-19T12:22:29;10.75;;;4.43;;
71125;SDS011;58785;55.566;38.058;2023-11-19T12:24:55;14.43;;;5.23;;
71125;SDS011;58785;55.566;38.058;2023-11-19T12:27:21;16.27;;;5.63;;
71125;SDS011;58785;55.566;38.058;2023-11-19T12:29:48;11.93;;;4.90;;
71125;SDS011;58785;55.566;38.058;2023-11-19T12:32:14;11.90;;;4.43;;
71125;SDS011;58785;55.566;38.058;2023-11-19T12:34:39;18.38;;;7.68;;
71125;SDS011;58785;55.566;38.058;2023-11-19T12:37:05;13.40;;;5.30;;
71125;SDS011;58785;55.566;38.058;2023-11-19T12:39:31;14.57;;;5.88;;
71125;SDS011;58785;55.566;38.058;2023-11-19T12:41:57;17.20;;;7.07;;
71125;SDS011;58785;55.566;38.058;2023-11-19T12:44:26;10.82;;;4.95;;
71125;SDS011;58785;55.566;38.058;2023-11-19T12:46:59;10.50;;;4.63;;
71125;SDS011;58785;55.566;38.058;2023-11-19T12:49:26;12.82;;;5.35;;
71125;SDS011;58785;55.566;38.058;2023-11-19T12:51:52;11.95;;;5.25;;
71125;SDS011;58785;55.566;38.058;2023-11-19T12:54:18;13.43;;;5.72;;
71125;SDS011;58785;55.566;38.058;2023-11-19T12:56:53;13.07;;;5.13;;
71125;SDS011;58785;55.566;38.058;2023-11-19T12:59:19;12.70;;;5.93;;
71125;SDS011;58785;55.566;38.058;2023-11-19T13:01:54;15.48;;;7.00;;
71125;SDS011;58785;55.566;38.058;2023-11-19T13:04:21;18.00;;;7.90;;
71125;SDS011;58785;55.566;38.058;2023-11-19T13:06:49;14.63;;;4.50;;
71125;SDS011;58785;55.566;38.058;2023-11-19T13:09:24;13.95;;;4.30;;
71125;SDS011;58785;55.566;38.058;2023-11-19T13:11:54;10.75;;;4.18;;
71125;SDS011;58785;55.566;38.058;2023-11-19T13:14:21;12.80;;;4.83;;
71125;SDS011;58785;55.566;38.058;2023-11-19T13:16:48;11.48;;;4.15;;
71125;SDS011;58785;55.566;38.058;2023-11-19T13:19:14;14.73;;;5.10;;
71125;SDS011;58785;55.566;38.058;2023-11-19T13:21:44;16.52;;;5.53;;
71125;SDS011;58785;55.566;38.058;2023-11-19T13:24:13;11.93;;;5.17;;
71125;SDS011;58785;55.566;38.058;2023-11-19T13:26:39;11.95;;;4.47;;
71125;SDS011;58785;55.566;38.058;2023-11-19T13:29:05;13.27;;;5.43;;
71125;SDS011;58785;55.566;38.058;2023-11-19T13:31:30;12.17;;;5.37;;
71125;SDS011;58785;55.566;38.058;2023-11-19T13:33:56;16.07;;;5.00;;
71125;SDS011;58785;55.566;38.058;2023-11-19T13:36:23;15.13;;;5.87;;
71125;SDS011;58785;55.566;38.058;2023-11-19T13:38:50;14.35;;;6.25;;
71125;SDS011;58785;55.566;38.058;2023-11-19T13:41:16;24.23;;;6.97;;
71125;SDS011;58785;55.566;38.058;2023-11-19T13:43:42;16.08;;;5.88;;
71125;SDS011;58785;55.566;38.058;2023-11-19T13:46:09;12.53;;;5.97;;
71125;SDS011;58785;55.566;38.058;2023-11-19T13:48:37;17.52;;;6.55;;
71125;SDS011;58785;55.566;38.058;2023-11-19T13:51:04;16.15;;;5.65;;
71125;SDS011;58785;55.566;38.058;2023-11-19T13:53:30;13.02;;;5.50;;
71125;SDS011;58785;55.566;38.058;2023-11-19T13:55:56;18.30;;;7.27;;
71125;SDS011;58785;55.566;38.058;2023-11-19T13:58:21;12.10;;;5.17;;
71125;SDS011;58785;55.566;38.058;2023-11-19T14:00:47;15.80;;;5.50;;
71125;SDS011;58785;55.566;38.058;2023-11-19T14:03:13;16.87;;;4.97;;
71125;SDS011;58785;55.566;38.058;2023-11-19T14:05:38;18.90;;;6.53;;
71125;SDS011;58785;55.566;38.058;2023-11-19T14:08:06;11.70;;;5.70;;
71125;SDS011;58785;55.566;38.058;2023-11-19T14:10:39;13.60;;;4.60;;
71125;SDS011;58785;55.566;38.058;2023-11-19T14:13:06;10.23;;;4.03;;
71125;SDS011;58785;55.566;38.058;2023-11-19T14:15:32;11.82;;;4.57;;
71125;SDS011;58785;55.566;38.058;2023-11-19T14:17:58;14.23;;;5.30;;
71125;SDS011;58785;55.566;38.058;2023-11-19T14:20:23;17.90;;;6.60;;
71125;SDS011;58785;55.566;38.058;2023-11-19T14:22:49;13.23;;;5.10;;
71125;SDS011;58785;55.566;38.058;2023-11-19T14:25:16;16.88;;;5.72;;
71125;SDS011;58785;55.566;38.058;2023-11-19T14:27:44;16.10;;;6.32;;
71125;SDS011;58785;55.566;38.058;2023-11-19T14:30:13;14.40;;;6.68;;
71125;SDS011;58785;55.566;38.058;2023-11-19T14:32:40;15.40;;;6.95;;
71125;SDS011;58785;55.566;38.058;2023-11-19T14:35:10;15.63;;;6.50;;
71125;SDS011;58785;55.566;38.058;2023-11-19T14:37:36;16.77;;;6.63;;
71125;SDS011;58785;55.566;38.058;2023-11-19T14:40:02;16.60;;;7.05;;
71125;SDS011;58785;55.566;38.058;2023-11-19T14:42:32;13.93;;;6.00;;